Main page
METAR-TAF:

METAR-TAF

Airports :

Clinton/Bleibler Ranch Aerodrome

Clinton, British Columbia, Canada

latitude: 51-15-59N, longitude: 121-41-05W, elevation: 1126 m

Current weather observation

The report was made 29 minutes ago, at 22:00 UTC
Wind 4 kt from the Southeast, varying between East and West/Southwest
Temperature 31°C
Humidity 22%
Pressure 1017 hPa
Visibility: 12.9 km
Clear sky

METAR: CYIN 172200Z AUTO 14004KT 080V250 8SM CLR 31/07 A3004 RMK SLP149 DENSITY ALT 6200FT

Time: 15:29 (22:29 UTC)


TAF: missing

Weather observations and forecasts of more than 4000 airports (METAR and TAF reports).

The available stations are represented by yellow and red dots on the map.

Hover mouse over dot to see the name of the station.

Then click to see weather observations and forecasts.

To change the map : click on the green buttons with a black cross to zoom in, on the green button with a dash to zoom out, or on the green arrows for adjacent maps.


METAR-TAF: